sensor_id;sensor_type;location;lat;lon;timestamp;pressure;altitude;pressure_sealevel;temperature;humidity
36828;BME280;22766;48.042;11.192;2023-03-18T00:00:07;94616.81;;;2.88;100.00
36828;BME280;22766;48.042;11.192;2023-03-18T00:02:36;94624.22;;;2.80;100.00
36828;BME280;22766;48.042;11.192;2023-03-18T00:05:05;94612.63;;;2.87;100.00
36828;BME280;22766;48.042;11.192;2023-03-18T00:07:34;94615.78;;;2.91;100.00
36828;BME280;22766;48.042;11.192;2023-03-18T00:10:03;94626.75;;;2.91;100.00
36828;BME280;22766;48.042;11.192;2023-03-18T00:12:31;94629.44;;;2.90;100.00
36828;BME280;22766;48.042;11.192;2023-03-18T00:14:59;94627.00;;;2.99;100.00
36828;BME280;22766;48.042;11.192;2023-03-18T00:17:26;94632.81;;;2.90;100.00
36828;BME280;22766;48.042;11.192;2023-03-18T00:19:53;94631.72;;;2.70;100.00
36828;BME280;22766;48.042;11.192;2023-03-18T00:22:20;94633.94;;;2.64;100.00
36828;BME280;22766;48.042;11.192;2023-03-18T00:24:48;94630.00;;;2.71;100.00
36828;BME280;22766;48.042;11.192;2023-03-18T00:27:15;94640.41;;;2.68;100.00
36828;BME280;22766;48.042;11.192;2023-03-18T00:29:42;94638.94;;;2.76;100.00
36828;BME280;22766;48.042;11.192;2023-03-18T00:32:09;94640.09;;;2.95;100.00
36828;BME280;22766;48.042;11.192;2023-03-18T00:34:36;94649.38;;;2.96;100.00
36828;BME280;22766;48.042;11.192;2023-03-18T00:37:03;94653.78;;;3.05;100.00
36828;BME280;22766;48.042;11.192;2023-03-18T00:39:30;94649.38;;;3.18;100.00
36828;BME280;22766;48.042;11.192;2023-03-18T00:41:58;94651.81;;;3.30;100.00
36828;BME280;22766;48.042;11.192;2023-03-18T00:44:27;94649.94;;;3.43;100.00
36828;BME280;22766;48.042;11.192;2023-03-18T00:46:54;94656.22;;;3.39;100.00
36828;BME280;22766;48.042;11.192;2023-03-18T00:49:21;94661.78;;;3.33;100.00
36828;BME280;22766;48.042;11.192;2023-03-18T00:51:47;94661.75;;;3.55;100.00
36828;BME280;22766;48.042;11.192;2023-03-18T00:54:14;94664.03;;;4.12;100.00
36828;BME280;22766;48.042;11.192;2023-03-18T00:56:44;94661.97;;;4.58;100.00
36828;BME280;22766;48.042;11.192;2023-03-18T00:59:10;94660.84;;;4.72;100.00
36828;BME280;22766;48.042;11.192;2023-03-18T01:01:38;94663.47;;;4.40;100.00
36828;BME280;22766;48.042;11.192;2023-03-18T01:04:05;94654.19;;;4.08;100.00
36828;BME280;22766;48.042;11.192;2023-03-18T01:06:34;94655.63;;;3.90;100.00
36828;BME280;22766;48.042;11.192;2023-03-18T01:09:05;94660.47;;;3.72;100.00
36828;BME280;22766;48.042;11.192;2023-03-18T01:11:32;94656.06;;;3.52;100.00
36828;BME280;22766;48.042;11.192;2023-03-18T01:13:59;94651.31;;;3.36;100.00
36828;BME280;22766;48.042;11.192;2023-03-18T01:16:26;94650.88;;;3.31;100.00
36828;BME280;22766;48.042;11.192;2023-03-18T01:18:53;94652.28;;;3.24;100.00
36828;BME280;22766;48.042;11.192;2023-03-18T01:21:20;94650.91;;;3.09;100.00
36828;BME280;22766;48.042;11.192;2023-03-18T01:23:52;94651.09;;;2.95;100.00
36828;BME280;22766;48.042;11.192;2023-03-18T01:26:20;94645.09;;;2.96;100.00
36828;BME280;22766;48.042;11.192;2023-03-18T01:28:47;94649.13;;;2.88;100.00
36828;BME280;22766;48.042;11.192;2023-03-18T01:31:14;94643.91;;;2.78;100.00
36828;BME280;22766;48.042;11.192;2023-03-18T01:33:43;94647.28;;;3.01;100.00
36828;BME280;22766;48.042;11.192;2023-03-18T01:36:10;94651.81;;;2.97;100.00
36828;BME280;22766;48.042;11.192;2023-03-18T01:38:38;94644.94;;;2.75;100.00
36828;BME280;22766;48.042;11.192;2023-03-18T01:41:09;94650.41;;;2.71;100.00
36828;BME280;22766;48.042;11.192;2023-03-18T01:43:39;94652.69;;;2.74;100.00
36828;BME280;22766;48.042;11.192;2023-03-18T01:48:58;94647.16;;;2.69;100.00
36828;BME280;22766;48.042;11.192;2023-03-18T01:51:26;94649.22;;;2.64;100.00
36828;BME280;22766;48.042;11.192;2023-03-18T01:53:53;94650.38;;;2.60;100.00
36828;BME280;22766;48.042;11.192;2023-03-18T01:56:23;94652.69;;;2.63;100.00
36828;BME280;22766;48.042;11.192;2023-03-18T01:58:53;94659.88;;;2.58;100.00
36828;BME280;22766;48.042;11.192;2023-03-18T02:01:25;94655.34;;;2.50;100.00
36828;BME280;22766;48.042;11.192;2023-03-18T02:03:55;94658.59;;;2.52;100.00
36828;BME280;22766;48.042;11.192;2023-03-18T02:06:23;94652.69;;;2.52;100.00
36828;BME280;22766;48.042;11.192;2023-03-18T02:08:58;94661.72;;;2.56;100.00
36828;BME280;22766;48.042;11.192;2023-03-18T02:11:30;94662.88;;;2.52;100.00
36828;BME280;22766;48.042;11.192;2023-03-18T02:13:59;94662.97;;;2.50;100.00
36828;BME280;22766;48.042;11.192;2023-03-18T02:16:37;94660.19;;;2.42;100.00
36828;BME280;22766;48.042;11.192;2023-03-18T02:19:14;94668.72;;;2.41;100.00
36828;BME280;22766;48.042;11.192;2023-03-18T02:21:59;94672.78;;;2.44;100.00
36828;BME280;22766;48.042;11.192;2023-03-18T02:24:46;94666.13;;;2.54;100.00
36828;BME280;22766;48.042;11.192;2023-03-18T02:27:22;94671.91;;;2.56;100.00
36828;BME280;22766;48.042;11.192;2023-03-18T02:30:00;94673.41;;;2.58;100.00
36828;BME280;22766;48.042;11.192;2023-03-18T02:32:32;94673.06;;;2.63;100.00
36828;BME280;22766;48.042;11.192;2023-03-18T02:35:04;94676.22;;;2.66;100.00
36828;BME280;22766;48.042;11.192;2023-03-18T02:37:32;94681.19;;;2.68;100.00
36828;BME280;22766;48.042;11.192;2023-03-18T02:42:40;94680.59;;;2.64;100.00
36828;BME280;22766;48.042;11.192;2023-03-18T02:45:24;94680.72;;;2.63;100.00
36828;BME280;22766;48.042;11.192;2023-03-18T02:48:14;94681.53;;;2.63;100.00
36828;BME280;22766;48.042;11.192;2023-03-18T02:50:44;94685.00;;;2.62;100.00
36828;BME280;22766;48.042;11.192;2023-03-18T02:53:12;94689.78;;;2.67;100.00
36828;BME280;22766;48.042;11.192;2023-03-18T02:55:39;94687.47;;;2.75;100.00
36828;BME280;22766;48.042;11.192;2023-03-18T02:58:07;94681.81;;;2.82;100.00
36828;BME280;22766;48.042;11.192;2023-03-18T03:00:35;94685.66;;;2.88;100.00
36828;BME280;22766;48.042;11.192;2023-03-18T03:03:02;94684.13;;;2.85;100.00
36828;BME280;22766;48.042;11.192;2023-03-18T03:05:32;94694.56;;;2.82;100.00
36828;BME280;22766;48.042;11.192;2023-03-18T03:07:59;94694.69;;;2.92;100.00
36828;BME280;22766;48.042;11.192;2023-03-18T03:10:28;94696.19;;;2.95;100.00
36828;BME280;22766;48.042;11.192;2023-03-18T03:12:56;94700.50;;;2.94;100.00
36828;BME280;22766;48.042;11.192;2023-03-18T03:15:25;94697.94;;;2.94;100.00
36828;BME280;22766;48.042;11.192;2023-03-18T03:17:56;94694.31;;;2.85;100.00
36828;BME280;22766;48.042;11.192;2023-03-18T03:20:23;94705.91;;;2.78;100.00
36828;BME280;22766;48.042;11.192;2023-03-18T03:22:50;94705.44;;;2.73;100.00
36828;BME280;22766;48.042;11.192;2023-03-18T03:25:17;94710.63;;;2.72;100.00
36828;BME280;22766;48.042;11.192;2023-03-18T03:27:44;94708.91;;;2.72;100.00
36828;BME280;22766;48.042;11.192;2023-03-18T03:30:12;94712.97;;;2.75;100.00
36828;BME280;22766;48.042;11.192;2023-03-18T03:32:40;94711.00;;;2.78;100.00
36828;BME280;22766;48.042;11.192;2023-03-18T03:35:11;94710.88;;;2.80;100.00
36828;BME280;22766;48.042;11.192;2023-03-18T03:37:38;94717.81;;;2.78;100.00
36828;BME280;22766;48.042;11.192;2023-03-18T03:40:06;94716.22;;;2.77;100.00
36828;BME280;22766;48.042;11.192;2023-03-18T03:42:33;94720.38;;;2.78;100.00
36828;BME280;22766;48.042;11.192;2023-03-18T03:45:02;94730.59;;;2.89;100.00
36828;BME280;22766;48.042;11.192;2023-03-18T03:47:29;94721.91;;;2.92;100.00
36828;BME280;22766;48.042;11.192;2023-03-18T03:49:56;94724.09;;;2.85;100.00
36828;BME280;22766;48.042;11.192;2023-03-18T03:52:23;94727.69;;;2.82;100.00
36828;BME280;22766;48.042;11.192;2023-03-18T03:54:51;94727.00;;;2.80;100.00
36828;BME280;22766;48.042;11.192;2023-03-18T03:57:18;94724.72;;;2.89;100.00
36828;BME280;22766;48.042;11.192;2023-03-18T03:59:45;94726.19;;;2.91;100.00
36828;BME280;22766;48.042;11.192;2023-03-18T04:02:19;94722.25;;;2.87;100.00
36828;BME280;22766;48.042;11.192;2023-03-18T04:04:47;94726.63;;;2.85;100.00
36828;BME280;22766;48.042;11.192;2023-03-18T04:07:22;94732.78;;;2.71;100.00
36828;BME280;22766;48.042;11.192;2023-03-18T04:09:50;94729.59;;;2.57;100.00
36828;BME280;22766;48.042;11.192;2023-03-18T04:12:17;94740.38;;;2.60;100.00
36828;BME280;22766;48.042;11.192;2023-03-18T04:14:52;94728.31;;;2.62;100.00
36828;BME280;22766;48.042;11.192;2023-03-18T04:17:19;94736.91;;;2.61;100.00
36828;BME280;22766;48.042;11.192;2023-03-18T04:19:46;94734.09;;;2.53;100.00
36828;BME280;22766;48.042;11.192;2023-03-18T04:22:14;94736.63;;;2.53;100.00
36828;BME280;22766;48.042;11.192;2023-03-18T04:24:43;94729.28;;;2.38;100.00
36828;BME280;22766;48.042;11.192;2023-03-18T04:27:10;94735.06;;;2.40;100.00
36828;BME280;22766;48.042;11.192;2023-03-18T04:29:38;94738.75;;;2.36;100.00
36828;BME280;22766;48.042;11.192;2023-03-18T04:32:05;94737.34;;;2.32;100.00
36828;BME280;22766;48.042;11.192;2023-03-18T04:34:33;94737.59;;;2.29;100.00
36828;BME280;22766;48.042;11.192;2023-03-18T04:37:00;94734.22;;;2.28;100.00
36828;BME280;22766;48.042;11.192;2023-03-18T04:39:28;94736.25;;;2.12;100.00
36828;BME280;22766;48.042;11.192;2023-03-18T04:41:55;94734.72;;;2.10;100.00
36828;BME280;22766;48.042;11.192;2023-03-18T04:44:23;94738.78;;;2.12;100.00
36828;BME280;22766;48.042;11.192;2023-03-18T04:46:51;94733.53;;;2.03;100.00
36828;BME280;22766;48.042;11.192;2023-03-18T04:49:21;94733.94;;;1.97;100.00
36828;BME280;22766;48.042;11.192;2023-03-18T04:51:47;94732.22;;;1.97;100.00
36828;BME280;22766;48.042;11.192;2023-03-18T04:54:22;94733.53;;;2.03;100.00
36828;BME280;22766;48.042;11.192;2023-03-18T04:56:51;94736.66;;;2.06;100.00
36828;BME280;22766;48.042;11.192;2023-03-18T04:59:20;94736.78;;;2.05;100.00
36828;BME280;22766;48.042;11.192;2023-03-18T05:01:47;94735.38;;;2.01;100.00
36828;BME280;22766;48.042;11.192;2023-03-18T05:04:15;94741.22;;;2.37;100.00
36828;BME280;22766;48.042;11.192;2023-03-18T05:06:46;94735.41;;;2.12;100.00
36828;BME280;22766;48.042;11.192;2023-03-18T05:09:14;94747.50;;;1.97;100.00
36828;BME280;22766;48.042;11.192;2023-03-18T05:11:42;94740.41;;;1.89;100.00
36828;BME280;22766;48.042;11.192;2023-03-18T05:14:31;94737.97;;;1.88;100.00
36828;BME280;22766;48.042;11.192;2023-03-18T05:16:59;94739.25;;;2.17;100.00
36828;BME280;22766;48.042;11.192;2023-03-18T05:19:27;94750.59;;;2.37;100.00
36828;BME280;22766;48.042;11.192;2023-03-18T05:22:00;94743.94;;;2.23;100.00
36828;BME280;22766;48.042;11.192;2023-03-18T05:24:28;94741.25;;;2.25;100.00
36828;BME280;22766;48.042;11.192;2023-03-18T05:26:55;94739.06;;;2.20;100.00
36828;BME280;22766;48.042;11.192;2023-03-18T05:29:29;94750.94;;;2.67;100.00
36828;BME280;22766;48.042;11.192;2023-03-18T05:32:25;94745.03;;;2.66;100.00
36828;BME280;22766;48.042;11.192;2023-03-18T05:34:58;94750.84;;;2.79;100.00
36828;BME280;22766;48.042;11.192;2023-03-18T05:37:27;94739.66;;;2.58;100.00
36828;BME280;22766;48.042;11.192;2023-03-18T05:40:00;94740.59;;;2.57;100.00
36828;BME280;22766;48.042;11.192;2023-03-18T05:42:27;94745.13;;;2.65;100.00
36828;BME280;22766;48.042;11.192;2023-03-18T05:44:54;94752.94;;;2.51;100.00
36828;BME280;22766;48.042;11.192;2023-03-18T05:47:23;94752.75;;;2.54;100.00
36828;BME280;22766;48.042;11.192;2023-03-18T05:50:03;94750.53;;;2.84;100.00
36828;BME280;22766;48.042;11.192;2023-03-18T05:52:32;94759.84;;;2.96;100.00
36828;BME280;22766;48.042;11.192;2023-03-18T05:55:02;94761.69;;;2.94;100.00
36828;BME280;22766;48.042;11.192;2023-03-18T05:57:33;94750.19;;;2.89;100.00
36828;BME280;22766;48.042;11.192;2023-03-18T06:00:03;94759.44;;;2.78;100.00
36828;BME280;22766;48.042;11.192;2023-03-18T06:02:44;94757.22;;;2.85;100.00
36828;BME280;22766;48.042;11.192;2023-03-18T06:05:12;94761.53;;;2.84;100.00
36828;BME280;22766;48.042;11.192;2023-03-18T06:07:40;94759.31;;;2.80;100.00
36828;BME280;22766;48.042;11.192;2023-03-18T06:10:07;94754.81;;;2.83;100.00
36828;BME280;22766;48.042;11.192;2023-03-18T06:12:34;94755.91;;;3.03;100.00
36828;BME280;22766;48.042;11.192;2023-03-18T06:15:02;94757.75;;;3.12;100.00
36828;BME280;22766;48.042;11.192;2023-03-18T06:17:29;94751.63;;;3.15;100.00
36828;BME280;22766;48.042;11.192;2023-03-18T06:19:55;94750.69;;;3.27;100.00
36828;BME280;22766;48.042;11.192;2023-03-18T06:22:22;94761.53;;;3.41;100.00
36828;BME280;22766;48.042;11.192;2023-03-18T06:24:49;94754.56;;;3.54;100.00
36828;BME280;22766;48.042;11.192;2023-03-18T06:27:17;94756.28;;;3.65;100.00
36828;BME280;22766;48.042;11.192;2023-03-18T06:29:51;94759.44;;;3.79;100.00
36828;BME280;22766;48.042;11.192;2023-03-18T06:32:20;94764.84;;;3.97;100.00
36828;BME280;22766;48.042;11.192;2023-03-18T06:34:47;94763.78;;;4.11;100.00
36828;BME280;22766;48.042;11.192;2023-03-18T06:37:14;94766.22;;;4.23;100.00
36828;BME280;22766;48.042;11.192;2023-03-18T06:39:42;94768.59;;;4.36;100.00
36828;BME280;22766;48.042;11.192;2023-03-18T06:42:11;94770.09;;;4.49;100.00
36828;BME280;22766;48.042;11.192;2023-03-18T06:44:58;94769.69;;;4.65;100.00
36828;BME280;22766;48.042;11.192;2023-03-18T06:47:37;94763.47;;;4.79;100.00
36828;BME280;22766;48.042;11.192;2023-03-18T06:50:05;94766.41;;;4.95;100.00
36828;BME280;22766;48.042;11.192;2023-03-18T06:52:35;94773.28;;;5.15;100.00
36828;BME280;22766;48.042;11.192;2023-03-18T06:55:10;94761.94;;;5.38;100.00
36828;BME280;22766;48.042;11.192;2023-03-18T06:57:39;94775.53;;;5.59;100.00
36828;BME280;22766;48.042;11.192;2023-03-18T07:00:08;94769.06;;;5.85;100.00
36828;BME280;22766;48.042;11.192;2023-03-18T07:02:35;94765.63;;;5.96;100.00
36828;BME280;22766;48.042;11.192;2023-03-18T07:05:07;94769.97;;;6.14;100.00
36828;BME280;22766;48.042;11.192;2023-03-18T07:07:35;94761.50;;;6.33;100.00
36828;BME280;22766;48.042;11.192;2023-03-18T07:10:05;94761.69;;;6.50;100.00
36828;BME280;22766;48.042;11.192;2023-03-18T07:12:33;94757.09;;;6.63;100.00
36828;BME280;22766;48.042;11.192;2023-03-18T07:14:59;94758.47;;;6.77;100.00
36828;BME280;22766;48.042;11.192;2023-03-18T07:17:26;94764.13;;;6.90;100.00
36828;BME280;22766;48.042;11.192;2023-03-18T07:19:55;94765.47;;;7.04;100.00
36828;BME280;22766;48.042;11.192;2023-03-18T07:22:22;94768.31;;;7.10;100.00
36828;BME280;22766;48.042;11.192;2023-03-18T07:24:49;94767.19;;;7.22;100.00
36828;BME280;22766;48.042;11.192;2023-03-18T07:27:17;94765.97;;;7.36;100.00
36828;BME280;22766;48.042;11.192;2023-03-18T07:29:43;94770.81;;;7.39;100.00
36828;BME280;22766;48.042;11.192;2023-03-18T07:32:10;94769.47;;;7.44;100.00
36828;BME280;22766;48.042;11.192;2023-03-18T07:34:36;94774.03;;;7.50;100.00
36828;BME280;22766;48.042;11.192;2023-03-18T07:37:03;94776.19;;;7.55;100.00
36828;BME280;22766;48.042;11.192;2023-03-18T07:39:30;94781.69;;;7.70;100.00
36828;BME280;22766;48.042;11.192;2023-03-18T07:41:57;94779.00;;;7.71;100.00
36828;BME280;22766;48.042;11.192;2023-03-18T07:44:28;94779.41;;;7.67;100.00
36828;BME280;22766;48.042;11.192;2023-03-18T07:46:55;94779.38;;;7.76;100.00
36828;BME280;22766;48.042;11.192;2023-03-18T07:49:21;94784.94;;;8.08;100.00
36828;BME280;22766;48.042;11.192;2023-03-18T07:51:49;94779.31;;;8.32;100.00
36828;BME280;22766;48.042;11.192;2023-03-18T07:54:16;94780.34;;;8.39;100.00
36828;BME280;22766;48.042;11.192;2023-03-18T07:56:43;94787.75;;;8.42;100.00
36828;BME280;22766;48.042;11.192;2023-03-18T07:59:10;94792.34;;;8.48;100.00
36828;BME280;22766;48.042;11.192;2023-03-18T08:01:37;94788.81;;;8.67;100.00
36828;BME280;22766;48.042;11.192;2023-03-18T08:04:05;94786.56;;;8.81;100.00
36828;BME280;22766;48.042;11.192;2023-03-18T08:06:32;94785.22;;;8.95;100.00
36828;BME280;22766;48.042;11.192;2023-03-18T08:09:00;94784.81;;;8.99;100.00
36828;BME280;22766;48.042;11.192;2023-03-18T08:11:27;94780.22;;;9.11;100.00
36828;BME280;22766;48.042;11.192;2023-03-18T08:13:54;94782.81;;;9.11;100.00
36828;BME280;22766;48.042;11.192;2023-03-18T08:16:21;94782.59;;;9.04;100.00
36828;BME280;22766;48.042;11.192;2023-03-18T08:18:48;94784.50;;;9.20;100.00
36828;BME280;22766;48.042;11.192;2023-03-18T08:21:15;94790.72;;;9.35;100.00
36828;BME280;22766;48.042;11.192;2023-03-18T08:23:41;94791.66;;;9.77;100.00
36828;BME280;22766;48.042;11.192;2023-03-18T08:26:08;94788.50;;;10.17;100.00
36828;BME280;22766;48.042;11.192;2023-03-18T08:28:35;94783.81;;;10.46;100.00
36828;BME280;22766;48.042;11.192;2023-03-18T08:31:02;94785.47;;;10.63;100.00
36828;BME280;22766;48.042;11.192;2023-03-18T08:33:30;94794.22;;;10.94;100.00
36828;BME280;22766;48.042;11.192;2023-03-18T08:35:57;94790.66;;;10.87;98.62
36828;BME280;22766;48.042;11.192;2023-03-18T08:38:25;94792.00;;;11.15;97.69
36828;BME280;22766;48.042;11.192;2023-03-18T08:40:51;94785.56;;;11.27;95.25
36828;BME280;22766;48.042;11.192;2023-03-18T08:43:18;94793.63;;;11.49;81.97
36828;BME280;22766;48.042;11.192;2023-03-18T08:45:51;94787.31;;;11.59;83.21
36828;BME280;22766;48.042;11.192;2023-03-18T08:48:20;94789.09;;;11.51;83.43
36828;BME280;22766;48.042;11.192;2023-03-18T08:50:47;94785.53;;;11.60;82.33
36828;BME280;22766;48.042;11.192;2023-03-18T08:53:15;94780.66;;;11.65;83.21
36828;BME280;22766;48.042;11.192;2023-03-18T08:55:42;94788.53;;;12.11;81.15
36828;BME280;22766;48.042;11.192;2023-03-18T08:58:10;94781.97;;;12.40;77.51
36828;BME280;22766;48.042;11.192;2023-03-18T09:00:38;94780.00;;;12.42;82.75
36828;BME280;22766;48.042;11.192;2023-03-18T09:03:05;94784.34;;;12.80;85.31
36828;BME280;22766;48.042;11.192;2023-03-18T09:05:34;94778.78;;;13.22;77.03
36828;BME280;22766;48.042;11.192;2023-03-18T09:08:02;94787.59;;;13.35;73.71
36828;BME280;22766;48.042;11.192;2023-03-18T09:10:29;94782.88;;;13.16;70.99
36828;BME280;22766;48.042;11.192;2023-03-18T09:12:56;94781.69;;;13.41;73.82
36828;BME280;22766;48.042;11.192;2023-03-18T09:15:23;94773.88;;;13.04;73.82
36828;BME280;22766;48.042;11.192;2023-03-18T09:17:51;94791.25;;;12.65;70.58
36828;BME280;22766;48.042;11.192;2023-03-18T09:20:36;94783.88;;;12.46;71.69
36828;BME280;22766;48.042;11.192;2023-03-18T09:23:03;94785.75;;;12.90;67.59
36828;BME280;22766;48.042;11.192;2023-03-18T09:25:30;94778.53;;;13.31;65.66
36828;BME280;22766;48.042;11.192;2023-03-18T09:27:57;94771.44;;;13.48;63.15
36828;BME280;22766;48.042;11.192;2023-03-18T09:30:23;94774.59;;;13.72;59.83
36828;BME280;22766;48.042;11.192;2023-03-18T09:32:52;94772.47;;;13.90;59.66
36828;BME280;22766;48.042;11.192;2023-03-18T09:35:19;94773.94;;;14.51;60.22
36828;BME280;22766;48.042;11.192;2023-03-18T09:37:46;94779.41;;;14.92;56.54
36828;BME280;22766;48.042;11.192;2023-03-18T09:40:27;94774.06;;;15.36;57.57
36828;BME280;22766;48.042;11.192;2023-03-18T09:43:17;94778.38;;;15.71;55.54
36828;BME280;22766;48.042;11.192;2023-03-18T09:46:08;94772.78;;;16.36;51.04
36828;BME280;22766;48.042;11.192;2023-03-18T09:54:09;94777.63;;;17.86;39.16
36828;BME280;22766;48.042;11.192;2023-03-18T09:56:38;94782.47;;;17.69;39.56
36828;BME280;22766;48.042;11.192;2023-03-18T09:59:18;94783.97;;;16.57;41.84
36828;BME280;22766;48.042;11.192;2023-03-18T10:01:52;94779.47;;;16.79;39.63
36828;BME280;22766;48.042;11.192;2023-03-18T10:04:38;94785.28;;;17.67;40.64
36828;BME280;22766;48.042;11.192;2023-03-18T10:07:18;94779.84;;;17.89;40.70
36828;BME280;22766;48.042;11.192;2023-03-18T10:09:53;94779.03;;;18.01;41.16
36828;BME280;22766;48.042;11.192;2023-03-18T10:15:21;94778.66;;;19.25;35.78
36828;BME280;22766;48.042;11.192;2023-03-18T10:17:54;94773.81;;;18.85;34.36
36828;BME280;22766;48.042;11.192;2023-03-18T10:20:34;94769.66;;;19.77;33.13
36828;BME280;22766;48.042;11.192;2023-03-18T10:34:54;94757.28;;;20.09;31.77
36828;BME280;22766;48.042;11.192;2023-03-18T10:40:23;94758.78;;;20.95;30.45
36828;BME280;22766;48.042;11.192;2023-03-18T10:42:51;94750.25;;;21.18;31.15
36828;BME280;22766;48.042;11.192;2023-03-18T10:45:24;94747.94;;;22.15;28.94
36828;BME280;22766;48.042;11.192;2023-03-18T10:48:06;94742.53;;;22.57;27.25
36828;BME280;22766;48.042;11.192;2023-03-18T10:50:41;94740.78;;;23.13;26.93
36828;BME280;22766;48.042;11.192;2023-03-18T10:53:26;94729.97;;;22.47;27.13
36828;BME280;22766;48.042;11.192;2023-03-18T10:55:59;94726.69;;;23.08;27.33
36828;BME280;22766;48.042;11.192;2023-03-18T10:58:29;94724.69;;;23.71;27.64
36828;BME280;22766;48.042;11.192;2023-03-18T11:00:56;94729.31;;;23.48;26.49
36828;BME280;22766;48.042;11.192;2023-03-18T11:03:26;94724.78;;;22.75;27.58
36828;BME280;22766;48.042;11.192;2023-03-18T11:06:00;94715.09;;;22.53;28.01
36828;BME280;22766;48.042;11.192;2023-03-18T11:08:39;94716.19;;;22.68;29.02
36828;BME280;22766;48.042;11.192;2023-03-18T11:11:27;94713.09;;;23.11;26.95
36828;BME280;22766;48.042;11.192;2023-03-18T11:13:56;94721.19;;;22.30;28.81
36828;BME280;22766;48.042;11.192;2023-03-18T11:21:46;94701.84;;;23.93;24.91
36828;BME280;22766;48.042;11.192;2023-03-18T11:24:25;94699.78;;;24.72;24.50
36828;BME280;22766;48.042;11.192;2023-03-18T11:27:02;94702.66;;;24.92;25.16
36828;BME280;22766;48.042;11.192;2023-03-18T11:29:33;94694.91;;;24.42;25.88
36828;BME280;22766;48.042;11.192;2023-03-18T11:32:00;94691.25;;;24.86;23.18
36828;BME280;22766;48.042;11.192;2023-03-18T11:34:30;94685.47;;;23.42;26.51
36828;BME280;22766;48.042;11.192;2023-03-18T11:37:05;94675.78;;;23.97;27.25
36828;BME280;22766;48.042;11.192;2023-03-18T11:39:39;94676.28;;;25.82;26.05
36828;BME280;22766;48.042;11.192;2023-03-18T11:42:25;94671.94;;;26.03;23.00
36828;BME280;22766;48.042;11.192;2023-03-18T11:45:00;94671.91;;;25.98;23.26
36828;BME280;22766;48.042;11.192;2023-03-18T11:47:29;94663.06;;;25.82;24.01
36828;BME280;22766;48.042;11.192;2023-03-18T11:49:58;94660.25;;;25.93;23.17
36828;BME280;22766;48.042;11.192;2023-03-18T11:52:41;94655.97;;;26.86;22.65
36828;BME280;22766;48.042;11.192;2023-03-18T11:55:19;94652.63;;;26.44;23.22
36828;BME280;22766;48.042;11.192;2023-03-18T12:06:09;94642.81;;;26.44;23.42
36828;BME280;22766;48.042;11.192;2023-03-18T12:11:42;94645.84;;;25.43;22.97
36828;BME280;22766;48.042;11.192;2023-03-18T12:14:20;94652.13;;;25.68;24.73
36828;BME280;22766;48.042;11.192;2023-03-18T12:17:50;94645.22;;;26.51;23.33
36828;BME280;22766;48.042;11.192;2023-03-18T12:23:02;94650.41;;;26.83;23.83
36828;BME280;22766;48.042;11.192;2023-03-18T12:28:45;94638.22;;;25.46;24.62
36828;BME280;22766;48.042;11.192;2023-03-18T12:43:16;94644.59;;;28.56;19.94
36828;BME280;22766;48.042;11.192;2023-03-18T12:45:52;94639.47;;;28.65;21.28
36828;BME280;22766;48.042;11.192;2023-03-18T12:48:37;94632.69;;;26.93;24.16
36828;BME280;22766;48.042;11.192;2023-03-18T12:51:16;94637.53;;;27.92;23.37
36828;BME280;22766;48.042;11.192;2023-03-18T12:53:47;94641.44;;;28.39;21.61
36828;BME280;22766;48.042;11.192;2023-03-18T12:56:21;94643.88;;;29.38;19.82
36828;BME280;22766;48.042;11.192;2023-03-18T12:58:52;94648.66;;;29.80;18.83
36828;BME280;22766;48.042;11.192;2023-03-18T13:01:36;94643.19;;;28.69;18.50
36828;BME280;22766;48.042;11.192;2023-03-18T13:04:11;94629.72;;;29.48;18.63
36828;BME280;22766;48.042;11.192;2023-03-18T13:09:26;94620.75;;;26.86;20.98
36828;BME280;22766;48.042;11.192;2023-03-18T13:12:06;94621.38;;;27.58;20.61
36828;BME280;22766;48.042;11.192;2023-03-18T13:14:45;94612.59;;;27.37;19.99
36828;BME280;22766;48.042;11.192;2023-03-18T13:20:01;94616.53;;;27.10;21.21
36828;BME280;22766;48.042;11.192;2023-03-18T13:23:04;94611.03;;;27.41;20.37
36828;BME280;22766;48.042;11.192;2023-03-18T13:41:46;94587.34;;;26.85;21.26
36828;BME280;22766;48.042;11.192;2023-03-18T13:44:26;94593.53;;;27.55;20.26
36828;BME280;22766;48.042;11.192;2023-03-18T13:47:01;94597.47;;;27.08;20.94
36828;BME280;22766;48.042;11.192;2023-03-18T13:49:31;94589.56;;;27.33;21.44
36828;BME280;22766;48.042;11.192;2023-03-18T13:52:00;94589.28;;;27.59;20.02
36828;BME280;22766;48.042;11.192;2023-03-18T13:54:34;94592.31;;;28.32;19.90
36828;BME280;22766;48.042;11.192;2023-03-18T14:08:03;94579.47;;;27.60;21.00
36828;BME280;22766;48.042;11.192;2023-03-18T14:10:30;94567.50;;;27.73;20.89
36828;BME280;22766;48.042;11.192;2023-03-18T14:13:26;94573.25;;;26.69;22.91
36828;BME280;22766;48.042;11.192;2023-03-18T14:15:55;94576.84;;;25.81;21.85
36828;BME280;22766;48.042;11.192;2023-03-18T14:18:24;94572.28;;;27.20;21.74
36828;BME280;22766;48.042;11.192;2023-03-18T14:20:58;94570.16;;;26.82;22.88
36828;BME280;22766;48.042;11.192;2023-03-18T14:23:42;94579.16;;;26.14;23.85
36828;BME280;22766;48.042;11.192;2023-03-18T14:26:20;94570.53;;;26.39;23.02
36828;BME280;22766;48.042;11.192;2023-03-18T14:37:07;94555.88;;;27.23;21.32
36828;BME280;22766;48.042;11.192;2023-03-18T14:39:42;94552.59;;;26.61;21.66
36828;BME280;22766;48.042;11.192;2023-03-18T14:44:53;94546.00;;;25.18;22.64
36828;BME280;22766;48.042;11.192;2023-03-18T14:47:50;94552.81;;;24.56;24.43
36828;BME280;22766;48.042;11.192;2023-03-18T14:50:38;94551.88;;;23.80;24.63
36828;BME280;22766;48.042;11.192;2023-03-18T14:55:43;94544.94;;;23.03;26.39
36828;BME280;22766;48.042;11.192;2023-03-18T14:58:17;94534.41;;;23.03;25.57